ADDS TAF Board (Experimental) INFO Settings
IDs: Format: Expanded Condensed

KMCO - Orlando Intl, FL, US

Issued at 2104 UTC 08 Feb 2016
Updated at: 2308 UTC 08 Feb 2016
Time2253Z 09/00Z 09/01Z 09/02Z 09/03Z 09/04Z 09/05Z 09/06Z 09/07Z 09/08Z 09/09Z 09/10Z 09/11Z 09/12Z
Type OBS PRVL PRVL PRVL PRVL PRVL PRVL PRVL PRVL PRVL PRVL PRVL PRVL PRVL
VIS 10 >6 >6 >6 >6 >6 >6 >6 >6 >6 >6 >6 >6 >6
CIG 250 50 50 50 50 50 50 50 50 50 50 50 50 50
Cover BKN BKN BKN BKN BKN BKN BKN BKN BKN BKN BKN BKN BKN BKN
FltCat VFR VFR VFR VFR VFR VFR VFR VFR VFR VFR VFR VFR VFR VFR
WX -- VCSH VCSH VCSH VCSH VCSH VCSH -- -- -- -- -- -- --
WDir 240 250 250 250 250 250 250 280 280 280 280 280 280 280
WSpd 15 14 14 14 14 14 14 15 15 15 15 15 15 15
WGst 21 -- -- -- -- -- -- 22 22 22 22 22 22 22
R17/35
XWnd -13 -13 -13 -13 -13 -13 -13 -15 -15 -15 -15 -15 -15 -15
XGst -18 -- -- -- -- -- -- -22 -22 -22 -22 -22 -22 -22
HWnd 7 5 5 5 5 5 5 -3 -3 -3 -3 -3 -3 -3
HGst 10 -- -- -- -- -- -- -4 -4 -4 -4 -4 -4 -4
R18/36
XWnd -13 -13 -13 -13 -13 -13 -13 -15 -15 -15 -15 -15 -15 -15
XGst -18 -- -- -- -- -- -- -22 -22 -22 -22 -22 -22 -22
HWnd 7 5 5 5 5 5 5 -3 -3 -3 -3 -3 -3 -3
HGst 10 -- -- -- -- -- -- -4 -4 -4 -4 -4 -4 -4

NOTE: TEMPO conditions in [brackets]. Keep in mind TEMPO conditions might be better (lower impact) than prevailing conditions.

Raw TAF
KMCO 082104Z 0821/0918 24016G25KT P6SM SCT050 BKN300
  TEMPO 0821/0823 BKN050
  FM090000 25014KT P6SM VCSH BKN050 WS015/25035KT
  FM090600 28015G22KT P6SM BKN050
  FM091600 27020G30KT P6SM BKN050


Raw METAR
KMCO 082253Z 24015G21KT 10SM FEW048 SCT055 BKN250 17/06 A2991 RMK AO2 PK WND 23026/2208 SLP129 T01720061
KMCO 082153Z 25019G23KT 10SM SCT050 BKN250 18/06 A2992 RMK AO2 PK WND 22029/2100 SLP131 T01780056
KMCO 082053Z 23018G28KT 10SM SCT055 BKN240 19/06 A2992 RMK AO2 PK WND 23028/2049 SLP130 T01890056 56035

METAR Board
Radar Display
Forecast Discussion

TAF Board Legend

Potential Impact
Threat None Slight Moderate High
Visibility (sm) ≥5.1 5.1>X≥3 3>X≥1 <1
Ceiling (100 ft) ≥30.1 30.1>X≥10 10>X≥5 <5
Wind Speed (kt) <10 10≤X<20 20≤X<30 ≥30
Wind Gust (kt) <15 15≤X<25 25≤X<35 ≥35
Weather No Wx Reported VCTS,-TS,-FZRA,SN TS,FZRA +TS,+FZRA,+SN